createdAt,value
2023-04-12T00:01:33.612Z,9.10
2023-04-12T00:05:36.211Z,9.00
2023-04-12T00:09:39.390Z,9.00
2023-04-12T00:13:41.276Z,9.00
2023-04-12T00:17:44.123Z,8.90
2023-04-12T00:21:45.954Z,8.80
2023-04-12T00:25:47.993Z,8.70
2023-04-12T00:29:49.668Z,8.60
2023-04-12T00:33:51.501Z,8.60
2023-04-12T00:37:53.291Z,8.60
2023-04-12T00:41:57.031Z,8.50
2023-04-12T00:45:58.834Z,8.40
2023-04-12T00:50:01.914Z,8.30
2023-04-12T00:54:03.844Z,8.30
2023-04-12T00:58:05.798Z,8.30
2023-04-12T01:02:08.171Z,8.20
2023-04-12T01:07:04.639Z,8.30
2023-04-12T01:11:16.026Z,8.30
2023-04-12T01:15:18.912Z,8.20
2023-04-12T01:19:53.988Z,8.20
2023-04-12T01:24:03.612Z,8.20
2023-04-12T01:28:07.410Z,8.20
2023-04-12T01:32:11.820Z,8.20
2023-04-12T01:36:21.708Z,8.20
2023-04-12T01:44:51.233Z,8.20
2023-04-12T01:49:14.077Z,8.10
2023-04-12T01:53:23.590Z,8.20
2023-04-12T01:57:50.320Z,8.10
2023-04-12T02:01:52.501Z,8.10
2023-04-12T02:05:55.169Z,8.10
2023-04-12T02:09:56.845Z,8.20
2023-04-12T02:13:58.801Z,8.10
2023-04-12T02:18:01.508Z,8.20
2023-04-12T02:22:07.812Z,8.20
2023-04-12T02:26:10.754Z,8.10
2023-04-12T02:30:13.512Z,8.10
2023-04-12T02:34:17.835Z,8.10
2023-04-12T02:38:19.512Z,8.10
2023-04-12T02:42:21.184Z,8.10
2023-04-12T02:46:25.432Z,8.10
2023-04-12T02:52:02.958Z,8.00
2023-04-12T02:55:23.073Z,8.10
2023-04-12T02:59:25.367Z,8.00
2023-04-12T03:03:31.919Z,8.00
2023-04-12T03:07:34.047Z,8.10
2023-04-12T03:11:35.980Z,8.10
2023-04-12T03:15:37.755Z,8.00
2023-04-12T03:19:39.602Z,8.00
2023-04-12T03:23:41.373Z,8.00
2023-04-12T03:27:43.884Z,8.00
2023-04-12T03:31:45.513Z,8.00
2023-04-12T03:35:47.314Z,8.00
2023-04-12T03:39:49.126Z,8.10
2023-04-12T03:43:50.977Z,8.10
2023-04-12T03:47:52.771Z,8.10
2023-04-12T03:51:54.528Z,8.10
2023-04-12T03:55:56.484Z,8.10
2023-04-12T04:00:15.389Z,8.20
2023-04-12T04:04:17.325Z,8.20
2023-04-12T04:08:19.745Z,8.20
2023-04-12T04:12:21.608Z,8.20
2023-04-12T04:16:23.551Z,8.20
2023-04-12T04:20:26.678Z,8.20
2023-04-12T04:24:29.845Z,8.20
2023-04-12T04:28:35.163Z,8.20
2023-04-12T04:32:36.995Z,8.20
2023-04-12T04:36:45.107Z,8.20
2023-04-12T04:40:51.220Z,8.20
2023-04-12T04:45:00.362Z,8.20
2023-04-12T04:49:02.635Z,8.20
2023-04-12T04:53:04.339Z,8.20
2023-04-12T04:57:07.920Z,8.20
2023-04-12T05:01:12.489Z,8.20
2023-04-12T05:05:14.233Z,8.10
2023-04-12T05:09:16.058Z,8.20
2023-04-12T05:13:18.210Z,8.20
2023-04-12T05:17:20.168Z,8.10
2023-04-12T05:21:24.050Z,8.10
2023-04-12T05:25:26.128Z,8.10
2023-04-12T05:29:27.799Z,8.10
2023-04-12T05:33:30.624Z,8.10
2023-04-12T05:37:33.871Z,8.10
2023-04-12T05:41:35.691Z,8.10
2023-04-12T05:45:37.430Z,8.10
2023-04-12T05:49:41.018Z,8.20
2023-04-12T05:53:42.620Z,8.20
2023-04-12T05:57:46.697Z,8.30
2023-04-12T06:01:48.561Z,8.30
2023-04-12T06:05:51.389Z,8.30
2023-04-12T06:09:53.334Z,8.40
2023-04-12T06:13:55.565Z,8.50
2023-04-12T06:18:00.568Z,8.50
2023-04-12T06:22:02.335Z,8.50
2023-04-12T06:26:04.209Z,8.50
2023-04-12T06:30:06.548Z,8.60
2023-04-12T06:34:08.213Z,8.60
2023-04-12T06:38:09.910Z,8.70
2023-04-12T06:42:13.294Z,8.70
2023-04-12T06:46:18.711Z,8.80
2023-04-12T06:50:20.525Z,8.80
2023-04-12T06:54:22.631Z,8.90
2023-04-12T06:58:24.373Z,8.90
2023-04-12T07:02:26.353Z,8.90
2023-04-12T07:06:28.246Z,9.00
2023-04-12T07:10:29.935Z,9.00
2023-04-12T07:14:31.604Z,9.10
2023-04-12T07:18:33.306Z,9.00
2023-04-12T07:22:34.992Z,9.10
2023-04-12T07:26:36.778Z,9.10
2023-04-12T07:30:42.101Z,9.20
2023-04-12T07:34:43.883Z,9.20
2023-04-12T07:38:45.623Z,9.40
2023-04-12T07:42:47.271Z,9.50
2023-04-12T07:46:49.036Z,9.60
2023-04-12T07:50:51.316Z,9.60
2023-04-12T07:54:53.065Z,9.70
2023-04-12T07:58:54.681Z,9.80
2023-04-12T08:02:57.029Z,9.90
2023-04-12T08:06:59.167Z,10.00
2023-04-12T08:11:05.016Z,10.10
2023-04-12T08:15:07.234Z,10.20
2023-04-12T08:19:09.014Z,10.30
2023-04-12T08:23:13.796Z,10.40
2023-04-12T08:27:16.526Z,10.60
2023-04-12T08:31:18.387Z,10.80
2023-04-12T08:35:20.220Z,10.90
2023-04-12T08:39:23.148Z,10.90
2023-04-12T08:43:28.011Z,11.00
2023-04-12T08:47:31.175Z,11.20
2023-04-12T08:51:33.971Z,11.40
2023-04-12T08:55:35.613Z,11.40
2023-04-12T08:59:39.435Z,11.80
2023-04-12T09:03:42.906Z,11.60
2023-04-12T09:07:44.827Z,11.70
2023-04-12T09:11:46.620Z,11.60
2023-04-12T09:15:50.306Z,11.60
2023-04-12T09:19:53.368Z,11.50
2023-04-12T09:24:04.342Z,11.50
2023-04-12T09:28:28.061Z,11.40
2023-04-12T09:32:29.803Z,11.30
2023-04-12T09:36:38.685Z,11.40
2023-04-12T09:40:40.567Z,11.40
2023-04-12T09:44:42.442Z,11.50
2023-04-12T09:48:52.273Z,11.70
2023-04-12T09:52:58.273Z,11.80
2023-04-12T09:57:01.049Z,11.80
2023-04-12T10:01:03.714Z,12.70
2023-04-12T10:05:10.361Z,13.00
2023-04-12T10:09:14.435Z,13.20
2023-04-12T10:13:18.346Z,12.90
2023-04-12T10:17:22.514Z,13.00
2023-04-12T10:21:24.364Z,12.80
2023-04-12T10:25:27.624Z,12.70
2023-04-12T10:29:38.598Z,12.60
2023-04-12T10:33:42.097Z,12.70
2023-04-12T10:38:04.346Z,12.80
2023-04-12T10:42:26.966Z,11.80
2023-04-12T10:46:43.904Z,10.70
2023-04-12T10:50:45.635Z,10.30
2023-04-12T10:54:47.516Z,10.30
2023-04-12T10:58:50.658Z,10.10
2023-04-12T11:03:07.958Z,10.10
2023-04-12T11:07:11.611Z,10.10
2023-04-12T11:11:23.145Z,10.50
2023-04-12T11:15:28.083Z,10.30
2023-04-12T11:19:32.154Z,10.40
2023-04-12T11:23:36.205Z,10.60
2023-04-12T11:27:38.090Z,10.80
2023-04-12T11:31:39.854Z,11.10
2023-04-12T11:35:44.756Z,11.60
2023-04-12T11:39:48.579Z,11.60
2023-04-12T11:43:50.368Z,11.80
2023-04-12T11:47:52.174Z,11.50
2023-04-12T11:52:04.895Z,11.50
2023-04-12T11:56:10.379Z,11.90
2023-04-12T12:00:12.589Z,11.30
2023-04-12T12:04:15.087Z,11.00
2023-04-12T12:08:17.544Z,11.00
2023-04-12T12:12:19.248Z,11.40
2023-04-12T12:16:29.123Z,11.60
2023-04-12T12:20:32.706Z,11.90
2023-04-12T12:24:36.019Z,12.40
2023-04-12T12:28:40.638Z,12.50
2023-04-12T12:32:42.598Z,12.30
2023-04-12T12:36:44.445Z,12.60
2023-04-12T12:40:46.249Z,12.70
2023-04-12T12:44:47.923Z,12.20
2023-04-12T12:48:49.736Z,12.40
2023-04-12T12:52:52.486Z,12.50
2023-04-12T12:56:54.170Z,12.90
2023-04-12T13:00:56.025Z,12.90
2023-04-12T13:04:58.617Z,13.00
2023-04-12T13:09:00.781Z,12.80
2023-04-12T13:13:03.601Z,13.10
2023-04-12T13:17:05.922Z,13.40
2023-04-12T13:21:08.086Z,13.80
2023-04-12T13:25:10.150Z,12.80
2023-04-12T13:29:11.808Z,12.40
2023-04-12T13:33:18.540Z,12.70
2023-04-12T13:37:21.941Z,13.30
2023-04-12T13:41:23.631Z,13.90
2023-04-12T13:45:25.825Z,13.90
2023-04-12T13:49:27.552Z,14.10
2023-04-12T13:53:30.965Z,13.80
2023-04-12T13:57:41.855Z,14.00
2023-04-12T14:01:43.651Z,13.70
2023-04-12T14:05:45.545Z,13.70
2023-04-12T14:09:48.787Z,13.40
2023-04-12T14:13:50.854Z,14.00
2023-04-12T14:17:52.760Z,14.00
2023-04-12T14:21:54.957Z,14.00
2023-04-12T14:25:56.676Z,14.20
2023-04-12T14:29:58.350Z,14.80
2023-04-12T14:34:02.707Z,14.40
2023-04-12T14:38:04.772Z,14.00
2023-04-12T14:42:06.565Z,13.60
2023-04-12T14:46:08.308Z,12.90
2023-04-12T14:50:10.216Z,11.30
2023-04-12T14:55:07.626Z,11.20
2023-04-12T14:59:13.667Z,12.10
2023-04-12T15:03:16.473Z,12.80
2023-04-12T15:07:22.586Z,12.80
2023-04-12T15:11:27.308Z,12.30
2023-04-12T15:15:29.443Z,12.30
2023-04-12T15:19:31.603Z,12.80
2023-04-12T15:23:33.913Z,12.60
2023-04-12T15:27:35.665Z,13.50
2023-04-12T15:31:37.374Z,13.60
2023-04-12T15:35:42.374Z,13.00
2023-04-12T15:39:44.827Z,12.70
2023-04-12T15:43:49.415Z,12.30
2023-04-12T15:47:51.210Z,12.20
2023-04-12T15:51:57.025Z,12.20
2023-04-12T15:55:59.292Z,11.90
2023-04-12T16:00:02.140Z,11.40
2023-04-12T16:04:05.424Z,9.70
2023-04-12T16:08:07.580Z,9.40
2023-04-12T16:12:09.338Z,9.20
2023-04-12T16:16:15.418Z,9.10
2023-04-12T16:20:18.745Z,9.80
2023-04-12T16:24:20.700Z,9.60
2023-04-12T16:28:22.798Z,10.50
2023-04-12T16:32:24.759Z,11.20
2023-04-12T16:36:36.495Z,11.20
2023-04-12T16:40:38.840Z,11.60
2023-04-12T16:44:41.161Z,11.60
2023-04-12T16:48:42.881Z,12.20
2023-04-12T16:52:44.624Z,11.90
2023-04-12T16:56:47.262Z,11.50
2023-04-12T17:00:49.417Z,11.10
2023-04-12T17:04:51.299Z,10.80
2023-04-12T17:08:53.090Z,10.90
2023-04-12T17:12:58.694Z,10.70
2023-04-12T17:17:00.385Z,10.80
2023-04-12T17:21:02.424Z,10.50
2023-04-12T17:25:08.609Z,10.50
2023-04-12T17:29:10.288Z,10.20
2023-04-12T17:33:11.968Z,10.40
2023-04-12T17:37:13.906Z,10.40
2023-04-12T17:41:15.633Z,10.50
2023-04-12T17:45:21.608Z,10.30
2023-04-12T17:49:25.317Z,10.30
2023-04-12T17:58:34.601Z,10.30
2023-04-12T18:02:36.792Z,10.10
2023-04-12T18:06:39.470Z,10.10
2023-04-12T18:10:41.262Z,10.00
2023-04-12T18:14:43.074Z,9.90
2023-04-12T18:18:44.926Z,9.80
2023-04-12T18:22:46.974Z,9.70
2023-04-12T18:26:49.463Z,9.70
2023-04-12T18:30:51.153Z,9.60
2023-04-12T18:34:53.191Z,9.50
2023-04-12T18:38:55.062Z,9.60
2023-04-12T18:42:56.808Z,9.60
2023-04-12T18:46:58.576Z,9.50
2023-04-12T18:51:00.696Z,9.50
2023-04-12T18:55:02.444Z,9.60
2023-04-12T18:59:04.643Z,9.40
2023-04-12T19:03:06.657Z,9.40
2023-04-12T19:07:08.398Z,9.40
2023-04-12T19:11:10.569Z,9.20
2023-04-12T19:15:12.760Z,9.30
2023-04-12T19:19:14.759Z,9.10
2023-04-12T19:23:16.579Z,9.10
2023-04-12T19:27:18.533Z,8.90
2023-04-12T19:31:20.257Z,8.80
2023-04-12T19:35:22.062Z,8.70
2023-04-12T19:39:26.821Z,8.50
2023-04-12T19:43:28.599Z,8.60
2023-04-12T19:47:30.553Z,8.50
2023-04-12T19:51:32.333Z,8.50
2023-04-12T19:55:34.164Z,8.30
2023-04-12T19:59:36.759Z,8.30
2023-04-12T20:03:40.505Z,8.40
2023-04-12T20:07:45.459Z,8.40
2023-04-12T20:11:47.276Z,8.30
2023-04-12T20:15:50.986Z,8.30
2023-04-12T20:19:55.370Z,8.20
2023-04-12T20:23:59.325Z,8.00
2023-04-12T20:28:01.567Z,7.70
2023-04-12T20:32:04.203Z,7.30
2023-04-12T20:36:06.439Z,7.40
2023-04-12T20:40:09.512Z,7.40
2023-04-12T20:44:11.725Z,7.30
2023-04-12T20:48:13.456Z,7.50
2023-04-12T20:52:18.372Z,7.50
2023-04-12T20:56:20.025Z,7.70
2023-04-12T21:00:23.776Z,7.20
2023-04-12T21:04:28.514Z,6.70
2023-04-12T21:08:36.274Z,6.20
2023-04-12T21:12:42.518Z,6.10
2023-04-12T21:16:44.319Z,6.10
2023-04-12T21:20:47.679Z,6.00
2023-04-12T21:24:49.530Z,5.90
2023-04-12T21:28:51.489Z,5.90
2023-04-12T21:32:53.970Z,6.00
2023-04-12T21:36:57.289Z,5.90
2023-04-12T21:41:19.928Z,5.80
2023-04-12T21:45:24.102Z,5.80
2023-04-12T21:49:25.762Z,5.80
2023-04-12T21:53:27.445Z,5.50
2023-04-12T21:57:33.272Z,5.60
2023-04-12T22:01:35.070Z,5.60
2023-04-12T22:05:39.895Z,5.30
2023-04-12T22:09:42.436Z,5.50
2023-04-12T22:13:46.752Z,5.40
2023-04-12T22:17:49.069Z,5.60
2023-04-12T22:21:50.832Z,5.70
2023-04-12T22:25:58.199Z,5.80
2023-04-12T22:30:00.657Z,6.00
2023-04-12T22:34:02.340Z,6.10
2023-04-12T22:38:04.770Z,6.20
2023-04-12T22:42:06.493Z,6.20
2023-04-12T22:46:15.641Z,6.30
2023-04-12T22:50:17.734Z,6.30
2023-04-12T22:54:19.953Z,6.20
2023-04-12T22:58:22.182Z,6.30
2023-04-12T23:02:24.010Z,6.50
2023-04-12T23:06:26.533Z,6.50
2023-04-12T23:10:28.259Z,6.50
2023-04-12T23:14:30.087Z,6.50
2023-04-12T23:18:32.787Z,6.60
2023-04-12T23:22:55.273Z,6.50
2023-04-12T23:26:58.832Z,6.60
2023-04-12T23:31:03.335Z,6.60
2023-04-12T23:35:07.766Z,6.70
2023-04-12T23:39:09.622Z,6.60
2023-04-12T23:43:11.333Z,6.60
2023-04-12T23:47:13.199Z,6.60
2023-04-12T23:51:15.258Z,6.60
2023-04-12T23:55:17.102Z,6.60
2023-04-12T23:59:18.888Z,6.60
